sensor_id;sensor_type;location;lat;lon;timestamp;P1;durP1;ratioP1;P2;durP2;ratioP2
12302;SDS011;6214;48.012;7.862;2023-11-25T00:00:52;5.47;;;1.00;;
12302;SDS011;6214;48.012;7.862;2023-11-25T00:03:20;5.57;;;1.10;;
12302;SDS011;6214;48.012;7.862;2023-11-25T00:05:48;6.07;;;1.10;;
12302;SDS011;6214;48.012;7.862;2023-11-25T00:08:16;5.07;;;0.95;;
12302;SDS011;6214;48.012;7.862;2023-11-25T00:10:43;5.80;;;1.10;;
12302;SDS011;6214;48.012;7.862;2023-11-25T00:13:10;4.73;;;1.10;;
12302;SDS011;6214;48.012;7.862;2023-11-25T00:15:38;4.40;;;0.70;;
12302;SDS011;6214;48.012;7.862;2023-11-25T00:18:06;5.75;;;0.90;;
12302;SDS011;6214;48.012;7.862;2023-11-25T00:20:34;4.40;;;0.80;;
12302;SDS011;6214;48.012;7.862;2023-11-25T00:23:03;4.70;;;0.90;;
12302;SDS011;6214;48.012;7.862;2023-11-25T00:25:31;4.63;;;0.80;;
12302;SDS011;6214;48.012;7.862;2023-11-25T00:27:58;4.30;;;0.60;;
12302;SDS011;6214;48.012;7.862;2023-11-25T00:30:26;4.90;;;0.63;;
12302;SDS011;6214;48.012;7.862;2023-11-25T00:32:53;4.20;;;0.70;;
12302;SDS011;6214;48.012;7.862;2023-11-25T00:35:21;4.45;;;0.90;;
12302;SDS011;6214;48.012;7.862;2023-11-25T00:37:47;4.97;;;0.80;;
12302;SDS011;6214;48.012;7.862;2023-11-25T00:40:14;4.40;;;0.70;;
12302;SDS011;6214;48.012;7.862;2023-11-25T00:42:46;5.18;;;1.08;;
12302;SDS011;6214;48.012;7.862;2023-11-25T00:45:13;4.50;;;0.80;;
12302;SDS011;6214;48.012;7.862;2023-11-25T00:47:41;5.00;;;0.80;;
12302;SDS011;6214;48.012;7.862;2023-11-25T00:50:08;4.40;;;0.60;;
12302;SDS011;6214;48.012;7.862;2023-11-25T00:52:37;4.30;;;0.70;;
12302;SDS011;6214;48.012;7.862;2023-11-25T00:55:05;4.60;;;0.70;;
12302;SDS011;6214;48.012;7.862;2023-11-25T00:57:34;5.50;;;1.00;;
12302;SDS011;6214;48.012;7.862;2023-11-25T01:00:01;4.50;;;0.85;;
12302;SDS011;6214;48.012;7.862;2023-11-25T01:02:31;4.50;;;0.90;;
12302;SDS011;6214;48.012;7.862;2023-11-25T01:04:58;4.65;;;0.80;;
12302;SDS011;6214;48.012;7.862;2023-11-25T01:07:25;5.00;;;1.20;;
12302;SDS011;6214;48.012;7.862;2023-11-25T01:09:52;4.90;;;1.25;;
12302;SDS011;6214;48.012;7.862;2023-11-25T01:12:19;5.40;;;1.20;;
12302;SDS011;6214;48.012;7.862;2023-11-25T01:14:47;5.20;;;1.00;;
12302;SDS011;6214;48.012;7.862;2023-11-25T01:17:14;4.43;;;0.90;;
12302;SDS011;6214;48.012;7.862;2023-11-25T01:19:41;4.80;;;0.90;;
12302;SDS011;6214;48.012;7.862;2023-11-25T01:22:09;4.40;;;0.80;;
12302;SDS011;6214;48.012;7.862;2023-11-25T01:24:36;4.40;;;0.70;;
12302;SDS011;6214;48.012;7.862;2023-11-25T01:27:03;4.30;;;0.70;;
12302;SDS011;6214;48.012;7.862;2023-11-25T01:29:30;5.05;;;1.00;;
12302;SDS011;6214;48.012;7.862;2023-11-25T01:31:57;4.55;;;0.80;;
12302;SDS011;6214;48.012;7.862;2023-11-25T01:34:24;5.20;;;1.20;;
12302;SDS011;6214;48.012;7.862;2023-11-25T01:36:51;4.30;;;0.80;;
12302;SDS011;6214;48.012;7.862;2023-11-25T01:39:18;4.50;;;0.80;;
12302;SDS011;6214;48.012;7.862;2023-11-25T01:41:46;4.20;;;0.70;;
12302;SDS011;6214;48.012;7.862;2023-11-25T01:44:13;5.32;;;1.00;;
12302;SDS011;6214;48.012;7.862;2023-11-25T01:46:40;4.60;;;0.98;;
12302;SDS011;6214;48.012;7.862;2023-11-25T01:49:11;5.22;;;1.30;;
12302;SDS011;6214;48.012;7.862;2023-11-25T01:51:41;4.70;;;1.00;;
12302;SDS011;6214;48.012;7.862;2023-11-25T01:54:10;5.50;;;1.02;;
12302;SDS011;6214;48.012;7.862;2023-11-25T01:56:43;4.93;;;1.10;;
12302;SDS011;6214;48.012;7.862;2023-11-25T01:59:14;4.53;;;0.80;;
12302;SDS011;6214;48.012;7.862;2023-11-25T02:01:42;4.78;;;0.70;;
12302;SDS011;6214;48.012;7.862;2023-11-25T02:04:11;6.30;;;1.30;;
12302;SDS011;6214;48.012;7.862;2023-11-25T02:06:38;5.00;;;0.90;;
12302;SDS011;6214;48.012;7.862;2023-11-25T02:09:05;4.68;;;1.10;;
12302;SDS011;6214;48.012;7.862;2023-11-25T02:11:32;4.30;;;0.90;;
12302;SDS011;6214;48.012;7.862;2023-11-25T02:14:18;5.00;;;1.10;;
12302;SDS011;6214;48.012;7.862;2023-11-25T02:16:45;4.80;;;1.00;;
12302;SDS011;6214;48.012;7.862;2023-11-25T02:19:12;5.32;;;1.17;;
12302;SDS011;6214;48.012;7.862;2023-11-25T02:21:39;4.50;;;0.90;;
12302;SDS011;6214;48.012;7.862;2023-11-25T02:24:06;5.43;;;1.10;;
12302;SDS011;6214;48.012;7.862;2023-11-25T02:26:33;4.78;;;0.93;;
12302;SDS011;6214;48.012;7.862;2023-11-25T02:29:00;5.35;;;1.10;;
12302;SDS011;6214;48.012;7.862;2023-11-25T02:31:27;5.18;;;0.90;;
12302;SDS011;6214;48.012;7.862;2023-11-25T02:33:54;4.70;;;0.90;;
12302;SDS011;6214;48.012;7.862;2023-11-25T02:36:21;5.50;;;1.00;;
12302;SDS011;6214;48.012;7.862;2023-11-25T02:38:49;5.93;;;1.13;;
12302;SDS011;6214;48.012;7.862;2023-11-25T02:41:16;4.32;;;0.70;;
12302;SDS011;6214;48.012;7.862;2023-11-25T02:43:45;4.53;;;0.70;;
12302;SDS011;6214;48.012;7.862;2023-11-25T02:46:13;4.60;;;0.80;;
12302;SDS011;6214;48.012;7.862;2023-11-25T02:48:40;4.80;;;1.10;;
12302;SDS011;6214;48.012;7.862;2023-11-25T02:51:07;5.07;;;1.10;;
12302;SDS011;6214;48.012;7.862;2023-11-25T02:53:35;4.80;;;1.10;;
12302;SDS011;6214;48.012;7.862;2023-11-25T02:56:02;5.00;;;1.10;;
12302;SDS011;6214;48.012;7.862;2023-11-25T02:58:28;6.17;;;1.70;;
12302;SDS011;6214;48.012;7.862;2023-11-25T03:00:59;4.60;;;0.98;;
12302;SDS011;6214;48.012;7.862;2023-11-25T03:03:34;5.53;;;1.10;;
12302;SDS011;6214;48.012;7.862;2023-11-25T03:06:08;4.40;;;0.87;;
12302;SDS011;6214;48.012;7.862;2023-11-25T03:08:36;5.10;;;1.00;;
12302;SDS011;6214;48.012;7.862;2023-11-25T03:11:03;5.07;;;1.10;;
12302;SDS011;6214;48.012;7.862;2023-11-25T03:13:38;4.57;;;0.80;;
12302;SDS011;6214;48.012;7.862;2023-11-25T03:16:09;4.70;;;1.15;;
12302;SDS011;6214;48.012;7.862;2023-11-25T03:18:37;5.10;;;0.70;;
12302;SDS011;6214;48.012;7.862;2023-11-25T03:21:05;4.88;;;0.80;;
12302;SDS011;6214;48.012;7.862;2023-11-25T03:23:32;4.90;;;0.80;;
12302;SDS011;6214;48.012;7.862;2023-11-25T03:25:59;4.40;;;0.70;;
12302;SDS011;6214;48.012;7.862;2023-11-25T03:28:26;4.60;;;0.90;;
12302;SDS011;6214;48.012;7.862;2023-11-25T03:30:53;5.60;;;0.93;;
12302;SDS011;6214;48.012;7.862;2023-11-25T03:33:20;4.88;;;0.88;;
12302;SDS011;6214;48.012;7.862;2023-11-25T03:35:47;4.30;;;0.70;;
12302;SDS011;6214;48.012;7.862;2023-11-25T03:38:14;4.80;;;0.90;;
12302;SDS011;6214;48.012;7.862;2023-11-25T03:40:42;6.03;;;1.10;;
12302;SDS011;6214;48.012;7.862;2023-11-25T03:43:09;6.68;;;1.30;;
12302;SDS011;6214;48.012;7.862;2023-11-25T03:45:36;6.80;;;0.95;;
12302;SDS011;6214;48.012;7.862;2023-11-25T03:48:03;5.18;;;0.90;;
12302;SDS011;6214;48.012;7.862;2023-11-25T03:50:32;5.27;;;1.00;;
12302;SDS011;6214;48.012;7.862;2023-11-25T03:52:59;5.40;;;1.00;;
12302;SDS011;6214;48.012;7.862;2023-11-25T03:55:27;5.30;;;1.00;;
12302;SDS011;6214;48.012;7.862;2023-11-25T03:57:54;4.80;;;0.90;;
12302;SDS011;6214;48.012;7.862;2023-11-25T04:00:21;4.50;;;0.80;;
12302;SDS011;6214;48.012;7.862;2023-11-25T04:02:49;4.82;;;0.90;;
12302;SDS011;6214;48.012;7.862;2023-11-25T04:05:17;5.20;;;1.10;;
12302;SDS011;6214;48.012;7.862;2023-11-25T04:07:45;6.70;;;2.90;;
12302;SDS011;6214;48.012;7.862;2023-11-25T04:10:12;5.40;;;1.50;;
12302;SDS011;6214;48.012;7.862;2023-11-25T04:15:13;5.00;;;0.80;;
12302;SDS011;6214;48.012;7.862;2023-11-25T04:17:42;4.90;;;0.98;;
12302;SDS011;6214;48.012;7.862;2023-11-25T04:20:10;4.97;;;0.80;;
12302;SDS011;6214;48.012;7.862;2023-11-25T04:22:44;4.95;;;0.80;;
12302;SDS011;6214;48.012;7.862;2023-11-25T04:25:12;4.85;;;0.85;;
12302;SDS011;6214;48.012;7.862;2023-11-25T04:27:42;5.60;;;1.10;;
12302;SDS011;6214;48.012;7.862;2023-11-25T04:30:10;4.10;;;0.60;;
12302;SDS011;6214;48.012;7.862;2023-11-25T04:32:38;4.60;;;0.80;;
12302;SDS011;6214;48.012;7.862;2023-11-25T04:35:09;4.93;;;0.80;;
12302;SDS011;6214;48.012;7.862;2023-11-25T04:37:36;4.70;;;0.80;;
12302;SDS011;6214;48.012;7.862;2023-11-25T04:40:04;4.40;;;0.60;;
12302;SDS011;6214;48.012;7.862;2023-11-25T04:42:32;4.82;;;0.90;;
12302;SDS011;6214;48.012;7.862;2023-11-25T04:44:59;5.40;;;1.13;;
12302;SDS011;6214;48.012;7.862;2023-11-25T04:47:26;5.70;;;1.00;;
12302;SDS011;6214;48.012;7.862;2023-11-25T04:49:54;5.72;;;1.17;;
12302;SDS011;6214;48.012;7.862;2023-11-25T04:52:21;6.10;;;1.00;;
12302;SDS011;6214;48.012;7.862;2023-11-25T04:54:48;5.28;;;0.80;;
12302;SDS011;6214;48.012;7.862;2023-11-25T04:57:16;4.88;;;0.88;;
12302;SDS011;6214;48.012;7.862;2023-11-25T04:59:43;5.30;;;1.00;;
12302;SDS011;6214;48.012;7.862;2023-11-25T05:02:10;4.90;;;1.00;;
12302;SDS011;6214;48.012;7.862;2023-11-25T05:04:37;7.60;;;1.27;;
12302;SDS011;6214;48.012;7.862;2023-11-25T05:07:04;5.57;;;1.10;;
12302;SDS011;6214;48.012;7.862;2023-11-25T05:09:31;4.45;;;0.80;;
12302;SDS011;6214;48.012;7.862;2023-11-25T05:11:58;5.50;;;0.90;;
12302;SDS011;6214;48.012;7.862;2023-11-25T05:14:26;4.90;;;0.70;;
12302;SDS011;6214;48.012;7.862;2023-11-25T05:16:53;7.00;;;1.40;;
12302;SDS011;6214;48.012;7.862;2023-11-25T05:19:22;5.70;;;1.25;;
12302;SDS011;6214;48.012;7.862;2023-11-25T05:21:49;6.20;;;1.10;;
12302;SDS011;6214;48.012;7.862;2023-11-25T05:24:17;5.80;;;1.30;;
12302;SDS011;6214;48.012;7.862;2023-11-25T05:26:46;6.20;;;1.20;;
12302;SDS011;6214;48.012;7.862;2023-11-25T05:29:13;5.15;;;0.90;;
12302;SDS011;6214;48.012;7.862;2023-11-25T05:31:41;6.00;;;1.10;;
12302;SDS011;6214;48.012;7.862;2023-11-25T05:34:08;5.40;;;1.10;;
12302;SDS011;6214;48.012;7.862;2023-11-25T05:36:35;6.50;;;1.40;;
12302;SDS011;6214;48.012;7.862;2023-11-25T05:39:02;4.82;;;1.00;;
12302;SDS011;6214;48.012;7.862;2023-11-25T05:41:33;5.43;;;1.10;;
12302;SDS011;6214;48.012;7.862;2023-11-25T05:44:04;5.38;;;1.00;;
12302;SDS011;6214;48.012;7.862;2023-11-25T05:46:33;5.63;;;1.10;;
12302;SDS011;6214;48.012;7.862;2023-11-25T05:49:01;5.18;;;0.80;;
12302;SDS011;6214;48.012;7.862;2023-11-25T05:51:32;4.90;;;0.90;;
12302;SDS011;6214;48.012;7.862;2023-11-25T05:54:00;5.10;;;0.90;;
12302;SDS011;6214;48.012;7.862;2023-11-25T05:56:27;5.10;;;0.80;;
12302;SDS011;6214;48.012;7.862;2023-11-25T05:58:54;6.15;;;1.20;;
12302;SDS011;6214;48.012;7.862;2023-11-25T06:01:21;5.53;;;1.10;;
12302;SDS011;6214;48.012;7.862;2023-11-25T06:03:48;5.30;;;1.00;;
12302;SDS011;6214;48.012;7.862;2023-11-25T06:06:19;4.82;;;0.80;;
12302;SDS011;6214;48.012;7.862;2023-11-25T06:08:47;4.57;;;0.70;;
12302;SDS011;6214;48.012;7.862;2023-11-25T06:11:18;4.47;;;0.70;;
12302;SDS011;6214;48.012;7.862;2023-11-25T06:13:49;4.55;;;0.80;;
12302;SDS011;6214;48.012;7.862;2023-11-25T06:16:16;4.30;;;0.70;;
12302;SDS011;6214;48.012;7.862;2023-11-25T06:18:43;4.70;;;0.85;;
12302;SDS011;6214;48.012;7.862;2023-11-25T06:21:10;4.60;;;0.90;;
12302;SDS011;6214;48.012;7.862;2023-11-25T06:23:38;4.35;;;0.70;;
12302;SDS011;6214;48.012;7.862;2023-11-25T06:26:05;4.70;;;0.70;;
12302;SDS011;6214;48.012;7.862;2023-11-25T06:28:38;4.53;;;0.90;;
12302;SDS011;6214;48.012;7.862;2023-11-25T06:31:06;4.70;;;1.00;;
12302;SDS011;6214;48.012;7.862;2023-11-25T06:33:33;4.65;;;0.80;;
12302;SDS011;6214;48.012;7.862;2023-11-25T06:36:02;4.50;;;0.80;;
12302;SDS011;6214;48.012;7.862;2023-11-25T06:38:30;4.30;;;0.60;;
12302;SDS011;6214;48.012;7.862;2023-11-25T06:40:57;4.30;;;0.70;;
12302;SDS011;6214;48.012;7.862;2023-11-25T06:43:24;5.43;;;1.20;;
12302;SDS011;6214;48.012;7.862;2023-11-25T06:45:51;5.10;;;1.10;;
12302;SDS011;6214;48.012;7.862;2023-11-25T06:48:20;5.63;;;1.10;;
12302;SDS011;6214;48.012;7.862;2023-11-25T06:50:50;5.00;;;0.90;;
12302;SDS011;6214;48.012;7.862;2023-11-25T06:53:19;5.40;;;0.95;;
12302;SDS011;6214;48.012;7.862;2023-11-25T06:55:46;4.00;;;0.47;;
12302;SDS011;6214;48.012;7.862;2023-11-25T06:58:13;5.13;;;0.70;;
12302;SDS011;6214;48.012;7.862;2023-11-25T07:00:41;4.32;;;0.60;;
12302;SDS011;6214;48.012;7.862;2023-11-25T07:03:08;4.20;;;0.60;;
12302;SDS011;6214;48.012;7.862;2023-11-25T07:05:35;4.40;;;0.50;;
12302;SDS011;6214;48.012;7.862;2023-11-25T07:08:03;4.75;;;0.82;;
12302;SDS011;6214;48.012;7.862;2023-11-25T07:10:31;5.10;;;0.80;;
12302;SDS011;6214;48.012;7.862;2023-11-25T07:13:03;4.97;;;0.70;;
12302;SDS011;6214;48.012;7.862;2023-11-25T07:15:31;5.88;;;0.90;;
12302;SDS011;6214;48.012;7.862;2023-11-25T07:17:58;4.50;;;0.80;;
12302;SDS011;6214;48.012;7.862;2023-11-25T07:20:26;4.15;;;0.63;;
12302;SDS011;6214;48.012;7.862;2023-11-25T07:22:53;4.30;;;0.52;;
12302;SDS011;6214;48.012;7.862;2023-11-25T07:25:21;4.15;;;0.55;;
12302;SDS011;6214;48.012;7.862;2023-11-25T07:27:48;4.50;;;0.70;;
12302;SDS011;6214;48.012;7.862;2023-11-25T07:30:16;5.70;;;1.00;;
12302;SDS011;6214;48.012;7.862;2023-11-25T07:32:43;4.73;;;0.90;;
12302;SDS011;6214;48.012;7.862;2023-11-25T07:35:11;4.60;;;0.70;;
12302;SDS011;6214;48.012;7.862;2023-11-25T07:37:39;5.50;;;1.00;;
12302;SDS011;6214;48.012;7.862;2023-11-25T07:40:07;4.95;;;0.90;;
12302;SDS011;6214;48.012;7.862;2023-11-25T07:42:36;4.40;;;0.70;;
12302;SDS011;6214;48.012;7.862;2023-11-25T07:45:06;4.60;;;0.85;;
12302;SDS011;6214;48.012;7.862;2023-11-25T07:47:36;4.70;;;0.90;;
12302;SDS011;6214;48.012;7.862;2023-11-25T07:50:04;4.40;;;0.60;;
12302;SDS011;6214;48.012;7.862;2023-11-25T07:52:31;4.30;;;0.60;;
12302;SDS011;6214;48.012;7.862;2023-11-25T07:54:58;4.50;;;0.65;;
12302;SDS011;6214;48.012;7.862;2023-11-25T07:57:25;4.30;;;0.70;;
12302;SDS011;6214;48.012;7.862;2023-11-25T07:59:53;5.43;;;0.90;;
12302;SDS011;6214;48.012;7.862;2023-11-25T08:02:20;4.20;;;0.70;;
12302;SDS011;6214;48.012;7.862;2023-11-25T08:04:47;4.90;;;0.80;;
12302;SDS011;6214;48.012;7.862;2023-11-25T08:07:14;4.88;;;0.70;;
12302;SDS011;6214;48.012;7.862;2023-11-25T08:09:42;4.70;;;0.85;;
12302;SDS011;6214;48.012;7.862;2023-11-25T08:12:09;4.43;;;0.70;;
12302;SDS011;6214;48.012;7.862;2023-11-25T08:14:36;4.20;;;0.60;;
12302;SDS011;6214;48.012;7.862;2023-11-25T08:17:03;4.40;;;0.70;;
12302;SDS011;6214;48.012;7.862;2023-11-25T08:19:31;4.90;;;0.90;;
12302;SDS011;6214;48.012;7.862;2023-11-25T08:21:58;4.65;;;0.70;;
12302;SDS011;6214;48.012;7.862;2023-11-25T08:24:25;4.30;;;0.60;;
12302;SDS011;6214;48.012;7.862;2023-11-25T08:26:52;5.25;;;1.10;;
12302;SDS011;6214;48.012;7.862;2023-11-25T08:29:20;6.28;;;1.30;;
12302;SDS011;6214;48.012;7.862;2023-11-25T08:31:47;4.80;;;1.10;;
12302;SDS011;6214;48.012;7.862;2023-11-25T08:34:14;5.20;;;1.30;;
12302;SDS011;6214;48.012;7.862;2023-11-25T08:36:41;5.53;;;1.60;;
12302;SDS011;6214;48.012;7.862;2023-11-25T08:39:13;4.90;;;1.20;;
12302;SDS011;6214;48.012;7.862;2023-11-25T08:41:40;5.20;;;1.20;;
12302;SDS011;6214;48.012;7.862;2023-11-25T08:44:11;6.47;;;2.10;;
12302;SDS011;6214;48.012;7.862;2023-11-25T08:46:39;5.18;;;1.50;;
12302;SDS011;6214;48.012;7.862;2023-11-25T08:49:10;5.50;;;1.38;;
12302;SDS011;6214;48.012;7.862;2023-11-25T08:51:41;4.80;;;1.10;;
12302;SDS011;6214;48.012;7.862;2023-11-25T08:54:13;6.20;;;1.70;;
12302;SDS011;6214;48.012;7.862;2023-11-25T08:56:41;6.40;;;2.00;;
12302;SDS011;6214;48.012;7.862;2023-11-25T08:59:11;5.83;;;1.40;;
12302;SDS011;6214;48.012;7.862;2023-11-25T09:01:44;4.80;;;1.13;;
12302;SDS011;6214;48.012;7.862;2023-11-25T09:04:13;6.20;;;1.65;;
12302;SDS011;6214;48.012;7.862;2023-11-25T09:06:46;6.47;;;1.70;;
12302;SDS011;6214;48.012;7.862;2023-11-25T09:09:17;6.00;;;1.70;;
12302;SDS011;6214;48.012;7.862;2023-11-25T09:11:46;4.88;;;1.20;;
12302;SDS011;6214;48.012;7.862;2023-11-25T09:14:16;5.05;;;1.20;;
12302;SDS011;6214;48.012;7.862;2023-11-25T09:16:45;7.10;;;1.70;;
12302;SDS011;6214;48.012;7.862;2023-11-25T09:19:13;4.88;;;1.38;;
12302;SDS011;6214;48.012;7.862;2023-11-25T09:21:40;5.55;;;1.60;;
12302;SDS011;6214;48.012;7.862;2023-11-25T09:24:07;5.40;;;1.70;;
12302;SDS011;6214;48.012;7.862;2023-11-25T09:26:35;6.90;;;2.10;;
12302;SDS011;6214;48.012;7.862;2023-11-25T09:29:02;6.53;;;2.40;;
12302;SDS011;6214;48.012;7.862;2023-11-25T09:31:29;7.32;;;2.28;;
12302;SDS011;6214;48.012;7.862;2023-11-25T09:33:56;6.18;;;2.00;;
12302;SDS011;6214;48.012;7.862;2023-11-25T09:36:23;5.60;;;1.60;;
12302;SDS011;6214;48.012;7.862;2023-11-25T09:38:51;6.70;;;1.73;;
12302;SDS011;6214;48.012;7.862;2023-11-25T09:41:18;6.40;;;1.50;;
12302;SDS011;6214;48.012;7.862;2023-11-25T09:43:45;5.60;;;1.80;;
12302;SDS011;6214;48.012;7.862;2023-11-25T09:46:13;5.80;;;1.70;;
12302;SDS011;6214;48.012;7.862;2023-11-25T09:48:41;5.90;;;2.00;;
12302;SDS011;6214;48.012;7.862;2023-11-25T09:51:08;5.10;;;1.40;;
12302;SDS011;6214;48.012;7.862;2023-11-25T09:53:36;6.00;;;1.50;;
12302;SDS011;6214;48.012;7.862;2023-11-25T09:56:04;6.30;;;1.80;;
12302;SDS011;6214;48.012;7.862;2023-11-25T09:58:33;5.22;;;1.42;;
12302;SDS011;6214;48.012;7.862;2023-11-25T10:01:02;5.30;;;1.40;;
12302;SDS011;6214;48.012;7.862;2023-11-25T10:03:36;6.40;;;1.70;;
12302;SDS011;6214;48.012;7.862;2023-11-25T10:06:06;5.05;;;1.30;;
12302;SDS011;6214;48.012;7.862;2023-11-25T10:08:34;5.57;;;1.50;;
12302;SDS011;6214;48.012;7.862;2023-11-25T10:11:02;5.80;;;1.50;;
12302;SDS011;6214;48.012;7.862;2023-11-25T10:13:37;5.00;;;1.20;;
12302;SDS011;6214;48.012;7.862;2023-11-25T10:16:07;6.43;;;1.70;;
12302;SDS011;6214;48.012;7.862;2023-11-25T10:18:35;5.30;;;1.20;;
12302;SDS011;6214;48.012;7.862;2023-11-25T10:21:04;6.45;;;1.50;;
12302;SDS011;6214;48.012;7.862;2023-11-25T10:23:34;5.15;;;1.20;;
12302;SDS011;6214;48.012;7.862;2023-11-25T10:26:02;5.47;;;1.30;;
12302;SDS011;6214;48.012;7.862;2023-11-25T10:28:33;5.72;;;1.40;;
12302;SDS011;6214;48.012;7.862;2023-11-25T10:31:01;5.97;;;1.60;;
12302;SDS011;6214;48.012;7.862;2023-11-25T10:33:32;5.60;;;1.30;;
12302;SDS011;6214;48.012;7.862;2023-11-25T10:36:00;5.90;;;1.70;;
12302;SDS011;6214;48.012;7.862;2023-11-25T10:38:28;6.50;;;1.50;;
12302;SDS011;6214;48.012;7.862;2023-11-25T10:41:00;5.85;;;1.40;;
12302;SDS011;6214;48.012;7.862;2023-11-25T10:43:28;5.75;;;1.30;;
12302;SDS011;6214;48.012;7.862;2023-11-25T10:46:07;6.63;;;1.50;;
12302;SDS011;6214;48.012;7.862;2023-11-25T10:48:35;5.43;;;1.67;;
12302;SDS011;6214;48.012;7.862;2023-11-25T10:51:06;6.55;;;2.00;;
12302;SDS011;6214;48.012;7.862;2023-11-25T10:53:36;6.03;;;1.85;;
12302;SDS011;6214;48.012;7.862;2023-11-25T10:56:05;6.80;;;1.70;;
12302;SDS011;6214;48.012;7.862;2023-11-25T10:58:34;6.40;;;1.95;;
12302;SDS011;6214;48.012;7.862;2023-11-25T11:01:01;6.00;;;1.50;;
12302;SDS011;6214;48.012;7.862;2023-11-25T11:04:12;5.60;;;1.50;;
12302;SDS011;6214;48.012;7.862;2023-11-25T11:06:20;7.80;;;2.83;;
12302;SDS011;6214;48.012;7.862;2023-11-25T11:08:49;8.07;;;3.37;;
12302;SDS011;6214;48.012;7.862;2023-11-25T11:11:33;8.18;;;2.85;;
12302;SDS011;6214;48.012;7.862;2023-11-25T11:14:13;5.40;;;1.60;;
12302;SDS011;6214;48.012;7.862;2023-11-25T11:17:02;7.40;;;2.10;;
12302;SDS011;6214;48.012;7.862;2023-11-25T11:19:39;7.28;;;2.20;;
12302;SDS011;6214;48.012;7.862;2023-11-25T11:22:11;7.00;;;1.85;;
12302;SDS011;6214;48.012;7.862;2023-11-25T11:27:35;5.35;;;1.20;;
12302;SDS011;6214;48.012;7.862;2023-11-25T11:30:15;6.50;;;1.60;;
12302;SDS011;6214;48.012;7.862;2023-11-25T11:33:04;5.80;;;1.30;;
12302;SDS011;6214;48.012;7.862;2023-11-25T11:35:35;6.00;;;1.50;;
12302;SDS011;6214;48.012;7.862;2023-11-25T11:40:58;5.40;;;1.00;;
12302;SDS011;6214;48.012;7.862;2023-11-25T11:43:26;4.40;;;0.70;;
12302;SDS011;6214;48.012;7.862;2023-11-25T11:45:55;6.00;;;1.50;;
12302;SDS011;6214;48.012;7.862;2023-11-25T11:48:23;5.77;;;1.40;;
12302;SDS011;6214;48.012;7.862;2023-11-25T11:50:52;6.55;;;1.60;;
12302;SDS011;6214;48.012;7.862;2023-11-25T11:53:22;5.82;;;1.40;;
12302;SDS011;6214;48.012;7.862;2023-11-25T11:55:54;6.00;;;1.10;;
12302;SDS011;6214;48.012;7.862;2023-11-25T11:58:22;6.10;;;1.40;;
12302;SDS011;6214;48.012;7.862;2023-11-25T12:00:54;5.35;;;1.30;;
12302;SDS011;6214;48.012;7.862;2023-11-25T12:03:33;5.90;;;1.40;;
12302;SDS011;6214;48.012;7.862;2023-11-25T12:06:03;5.68;;;1.50;;
12302;SDS011;6214;48.012;7.862;2023-11-25T12:08:31;6.30;;;1.70;;
12302;SDS011;6214;48.012;7.862;2023-11-25T12:11:00;7.30;;;1.73;;
12302;SDS011;6214;48.012;7.862;2023-11-25T12:13:32;7.23;;;2.10;;
12302;SDS011;6214;48.012;7.862;2023-11-25T12:16:00;5.40;;;1.40;;
12302;SDS011;6214;48.012;7.862;2023-11-25T12:18:28;7.18;;;1.73;;
12302;SDS011;6214;48.012;7.862;2023-11-25T12:20:56;7.60;;;2.10;;
12302;SDS011;6214;48.012;7.862;2023-11-25T12:23:24;6.37;;;1.33;;
12302;SDS011;6214;48.012;7.862;2023-11-25T12:26:10;6.45;;;1.50;;
12302;SDS011;6214;48.012;7.862;2023-11-25T12:28:43;6.13;;;1.60;;
12302;SDS011;6214;48.012;7.862;2023-11-25T12:31:10;7.00;;;1.48;;
12302;SDS011;6214;48.012;7.862;2023-11-25T12:33:37;5.30;;;1.13;;
12302;SDS011;6214;48.012;7.862;2023-11-25T12:36:05;5.90;;;1.10;;
12302;SDS011;6214;48.012;7.862;2023-11-25T12:38:34;4.88;;;0.80;;
12302;SDS011;6214;48.012;7.862;2023-11-25T12:41:04;4.90;;;0.80;;
12302;SDS011;6214;48.012;7.862;2023-11-25T12:44:01;6.20;;;1.50;;
12302;SDS011;6214;48.012;7.862;2023-11-25T12:46:28;6.70;;;1.40;;
12302;SDS011;6214;48.012;7.862;2023-11-25T12:48:55;5.97;;;1.30;;
12302;SDS011;6214;48.012;7.862;2023-11-25T12:51:24;5.00;;;1.30;;
12302;SDS011;6214;48.012;7.862;2023-11-25T12:53:51;5.57;;;1.40;;
12302;SDS011;6214;48.012;7.862;2023-11-25T12:56:20;6.95;;;1.58;;
12302;SDS011;6214;48.012;7.862;2023-11-25T12:58:48;6.90;;;1.70;;
12302;SDS011;6214;48.012;7.862;2023-11-25T13:01:15;7.90;;;1.50;;
12302;SDS011;6214;48.012;7.862;2023-11-25T13:03:42;6.38;;;1.50;;
12302;SDS011;6214;48.012;7.862;2023-11-25T13:06:09;5.45;;;1.30;;
12302;SDS011;6214;48.012;7.862;2023-11-25T13:08:37;5.45;;;1.00;;
12302;SDS011;6214;48.012;7.862;2023-11-25T13:11:11;6.30;;;1.25;;
12302;SDS011;6214;48.012;7.862;2023-11-25T13:13:41;5.20;;;1.37;;
12302;SDS011;6214;48.012;7.862;2023-11-25T13:16:09;5.43;;;1.00;;
12302;SDS011;6214;48.012;7.862;2023-11-25T13:18:37;4.70;;;1.00;;
12302;SDS011;6214;48.012;7.862;2023-11-25T13:21:12;5.30;;;1.13;;
12302;SDS011;6214;48.012;7.862;2023-11-25T13:23:39;5.00;;;1.27;;
12302;SDS011;6214;48.012;7.862;2023-11-25T13:26:06;5.45;;;1.30;;
12302;SDS011;6214;48.012;7.862;2023-11-25T13:28:34;5.25;;;1.13;;
12302;SDS011;6214;48.012;7.862;2023-11-25T13:31:03;4.70;;;0.90;;
12302;SDS011;6214;48.012;7.862;2023-11-25T13:33:31;5.10;;;0.90;;
12302;SDS011;6214;48.012;7.862;2023-11-25T13:35:58;4.95;;;1.13;;
12302;SDS011;6214;48.012;7.862;2023-11-25T13:38:25;5.40;;;1.20;;
12302;SDS011;6214;48.012;7.862;2023-11-25T13:40:52;5.70;;;1.40;;
12302;SDS011;6214;48.012;7.862;2023-11-25T13:43:19;5.10;;;1.05;;
12302;SDS011;6214;48.012;7.862;2023-11-25T13:45:47;6.20;;;1.30;;
12302;SDS011;6214;48.012;7.862;2023-11-25T13:48:15;6.07;;;1.50;;
12302;SDS011;6214;48.012;7.862;2023-11-25T13:50:43;4.90;;;1.20;;
12302;SDS011;6214;48.012;7.862;2023-11-25T13:53:10;6.30;;;1.40;;
12302;SDS011;6214;48.012;7.862;2023-11-25T13:55:39;5.80;;;1.30;;
12302;SDS011;6214;48.012;7.862;2023-11-25T13:58:15;7.27;;;2.00;;
12302;SDS011;6214;48.012;7.862;2023-11-25T14:00:45;5.93;;;1.52;;
12302;SDS011;6214;48.012;7.862;2023-11-25T14:03:12;7.15;;;1.60;;
12302;SDS011;6214;48.012;7.862;2023-11-25T14:05:41;6.30;;;1.70;;
12302;SDS011;6214;48.012;7.862;2023-11-25T14:08:12;8.17;;;1.93;;
12302;SDS011;6214;48.012;7.862;2023-11-25T14:10:44;6.30;;;1.80;;
12302;SDS011;6214;48.012;7.862;2023-11-25T14:13:11;6.68;;;1.83;;
12302;SDS011;6214;48.012;7.862;2023-11-25T14:15:40;6.13;;;1.90;;
12302;SDS011;6214;48.012;7.862;2023-11-25T14:18:07;6.53;;;1.65;;
12302;SDS011;6214;48.012;7.862;2023-11-25T14:20:37;6.60;;;1.60;;
12302;SDS011;6214;48.012;7.862;2023-11-25T14:23:04;8.00;;;1.80;;
12302;SDS011;6214;48.012;7.862;2023-11-25T14:25:31;7.40;;;1.70;;
12302;SDS011;6214;48.012;7.862;2023-11-25T14:27:58;6.43;;;1.70;;
12302;SDS011;6214;48.012;7.862;2023-11-25T14:30:27;7.38;;;2.00;;
12302;SDS011;6214;48.012;7.862;2023-11-25T14:32:55;5.80;;;1.50;;
12302;SDS011;6214;48.012;7.862;2023-11-25T14:35:22;8.73;;;2.60;;
12302;SDS011;6214;48.012;7.862;2023-11-25T14:37:49;7.88;;;2.30;;
12302;SDS011;6214;48.012;7.862;2023-11-25T14:40:22;7.80;;;2.10;;
12302;SDS011;6214;48.012;7.862;2023-11-25T14:42:50;7.93;;;2.30;;
12302;SDS011;6214;48.012;7.862;2023-11-25T14:45:17;7.00;;;2.00;;
12302;SDS011;6214;48.012;7.862;2023-11-25T14:47:44;7.95;;;2.05;;
12302;SDS011;6214;48.012;7.862;2023-11-25T14:50:11;7.78;;;2.13;;
12302;SDS011;6214;48.012;7.862;2023-11-25T14:52:39;6.78;;;1.98;;
12302;SDS011;6214;48.012;7.862;2023-11-25T14:55:07;6.40;;;2.13;;
12302;SDS011;6214;48.012;7.862;2023-11-25T14:57:38;8.20;;;2.45;;
12302;SDS011;6214;48.012;7.862;2023-11-25T15:00:06;8.70;;;2.53;;
12302;SDS011;6214;48.012;7.862;2023-11-25T15:02:40;7.45;;;2.10;;
12302;SDS011;6214;48.012;7.862;2023-11-25T15:05:07;6.18;;;1.85;;
12302;SDS011;6214;48.012;7.862;2023-11-25T15:07:36;8.55;;;2.50;;
12302;SDS011;6214;48.012;7.862;2023-11-25T15:10:03;7.18;;;2.10;;
12302;SDS011;6214;48.012;7.862;2023-11-25T15:12:31;7.00;;;2.10;;
12302;SDS011;6214;48.012;7.862;2023-11-25T15:14:58;6.82;;;1.90;;
12302;SDS011;6214;48.012;7.862;2023-11-25T15:17:24;8.43;;;2.50;;